sensor_id;sensor_type;location;lat;lon;timestamp;pressure;altitude;pressure_sealevel;temperature;humidity
19845;BME280;10083;51.038;7.012;2023-06-10T00:03:57;102633.59;;;21.42;100.00
19845;BME280;10083;51.038;7.012;2023-06-10T00:06:33;102640.13;;;21.61;100.00
19845;BME280;10083;51.038;7.012;2023-06-10T00:09:03;102637.94;;;21.47;100.00
19845;BME280;10083;51.038;7.012;2023-06-10T00:11:35;102637.03;;;21.47;100.00
19845;BME280;10083;51.038;7.012;2023-06-10T00:14:05;102625.25;;;21.23;100.00
19845;BME280;10083;51.038;7.012;2023-06-10T00:16:32;102619.81;;;21.23;100.00
19845;BME280;10083;51.038;7.012;2023-06-10T00:19:10;102610.13;;;21.38;100.00
19845;BME280;10083;51.038;7.012;2023-06-10T00:21:39;102607.16;;;21.20;100.00
19845;BME280;10083;51.038;7.012;2023-06-10T00:24:09;102616.66;;;21.57;100.00
19845;BME280;10083;51.038;7.012;2023-06-10T00:26:40;102610.06;;;21.39;100.00
19845;BME280;10083;51.038;7.012;2023-06-10T00:29:16;102616.41;;;21.40;100.00
19845;BME280;10083;51.038;7.012;2023-06-10T00:31:44;102627.59;;;21.55;100.00
19845;BME280;10083;51.038;7.012;2023-06-10T00:37:23;102615.22;;;21.24;100.00
19845;BME280;10083;51.038;7.012;2023-06-10T00:39:50;102610.47;;;21.29;100.00
19845;BME280;10083;51.038;7.012;2023-06-10T00:42:17;102615.03;;;21.03;100.00
19845;BME280;10083;51.038;7.012;2023-06-10T00:45:05;102613.16;;;20.81;100.00
19845;BME280;10083;51.038;7.012;2023-06-10T00:47:32;102609.56;;;20.54;100.00
19845;BME280;10083;51.038;7.012;2023-06-10T00:50:02;102592.38;;;20.53;100.00
19845;BME280;10083;51.038;7.012;2023-06-10T00:52:31;102585.97;;;20.54;100.00
19845;BME280;10083;51.038;7.012;2023-06-10T00:55:16;102585.31;;;20.48;100.00
19845;BME280;10083;51.038;7.012;2023-06-10T00:57:44;102582.78;;;20.42;100.00
19845;BME280;10083;51.038;7.012;2023-06-10T01:00:28;102598.31;;;20.40;100.00
19845;BME280;10083;51.038;7.012;2023-06-10T01:02:55;102647.31;;;20.10;100.00
19845;BME280;10083;51.038;7.012;2023-06-10T01:05:24;102735.00;;;20.20;100.00
19845;BME280;10083;51.038;7.012;2023-06-10T01:08:07;102843.03;;;19.85;100.00
19845;BME280;10083;51.038;7.012;2023-06-10T01:10:42;102919.78;;;19.64;100.00
19845;BME280;10083;51.038;7.012;2023-06-10T01:13:19;102945.16;;;19.65;100.00
19845;BME280;10083;51.038;7.012;2023-06-10T01:15:51;102981.66;;;19.55;100.00
19845;BME280;10083;51.038;7.012;2023-06-10T01:18:19;103084.22;;;19.47;100.00
19845;BME280;10083;51.038;7.012;2023-06-10T01:20:47;103165.94;;;19.37;100.00
19845;BME280;10083;51.038;7.012;2023-06-10T01:23:16;103303.78;;;19.31;100.00
19845;BME280;10083;51.038;7.012;2023-06-10T01:25:49;103494.19;;;19.20;100.00
19845;BME280;10083;51.038;7.012;2023-06-10T01:28:27;103525.88;;;19.20;100.00
19845;BME280;10083;51.038;7.012;2023-06-10T01:31:37;103442.63;;;19.16;100.00
19845;BME280;10083;51.038;7.012;2023-06-10T01:34:16;103477.28;;;19.00;100.00
19845;BME280;10083;51.038;7.012;2023-06-10T01:37:13;103560.59;;;19.00;100.00
19845;BME280;10083;51.038;7.012;2023-06-10T01:39:45;103652.78;;;19.13;100.00
19845;BME280;10083;51.038;7.012;2023-06-10T01:46:00;103714.69;;;18.85;100.00
19845;BME280;10083;51.038;7.012;2023-06-10T01:55:22;103848.88;;;18.59;100.00
19845;BME280;10083;51.038;7.012;2023-06-10T01:57:56;103873.38;;;18.40;100.00
19845;BME280;10083;51.038;7.012;2023-06-10T02:00:23;103916.78;;;18.40;100.00
19845;BME280;10083;51.038;7.012;2023-06-10T02:05:49;103988.22;;;18.50;100.00
19845;BME280;10083;51.038;7.012;2023-06-10T02:08:30;103992.75;;;18.49;100.00
19845;BME280;10083;51.038;7.012;2023-06-10T02:11:01;103981.00;;;18.50;100.00
19845;BME280;10083;51.038;7.012;2023-06-10T02:13:49;103978.31;;;18.43;100.00
19845;BME280;10083;51.038;7.012;2023-06-10T02:16:30;103969.38;;;18.18;100.00
19845;BME280;10083;51.038;7.012;2023-06-10T02:18:57;103974.81;;;18.06;100.00
19845;BME280;10083;51.038;7.012;2023-06-10T02:21:47;104052.56;;;18.22;100.00
19845;BME280;10083;51.038;7.012;2023-06-10T02:24:14;104091.47;;;18.15;100.00
19845;BME280;10083;51.038;7.012;2023-06-10T02:26:47;104110.47;;;18.09;100.00
19845;BME280;10083;51.038;7.012;2023-06-10T02:29:14;104158.38;;;18.07;100.00
19845;BME280;10083;51.038;7.012;2023-06-10T02:31:52;104218.03;;;17.89;100.00
19845;BME280;10083;51.038;7.012;2023-06-10T02:34:19;104271.38;;;17.82;100.00
19845;BME280;10083;51.038;7.012;2023-06-10T02:36:48;104349.09;;;17.82;100.00
19845;BME280;10083;51.038;7.012;2023-06-10T02:39:19;104415.13;;;17.90;100.00
19845;BME280;10083;51.038;7.012;2023-06-10T02:45:12;104505.38;;;17.66;100.00
19845;BME280;10083;51.038;7.012;2023-06-10T02:50:57;104627.41;;;17.69;100.00
19845;BME280;10083;51.038;7.012;2023-06-10T02:56:22;104691.38;;;17.52;100.00
19845;BME280;10083;51.038;7.012;2023-06-10T02:58:49;104783.38;;;17.40;100.00
19845;BME280;10083;51.038;7.012;2023-06-10T03:01:38;104882.75;;;17.39;100.00
19845;BME280;10083;51.038;7.012;2023-06-10T03:04:09;105011.09;;;17.43;100.00
19845;BME280;10083;51.038;7.012;2023-06-10T03:06:40;105126.69;;;17.41;100.00
19845;BME280;10083;51.038;7.012;2023-06-10T03:09:14;105231.34;;;17.33;100.00
19845;BME280;10083;51.038;7.012;2023-06-10T03:11:45;105356.09;;;17.36;100.00
19845;BME280;10083;51.038;7.012;2023-06-10T03:14:12;105446.44;;;17.36;100.00
19845;BME280;10083;51.038;7.012;2023-06-10T03:16:40;105548.50;;;17.34;100.00
19845;BME280;10083;51.038;7.012;2023-06-10T03:19:09;105610.72;;;17.30;100.00
19845;BME280;10083;51.038;7.012;2023-06-10T03:21:44;105672.97;;;17.27;100.00
19845;BME280;10083;51.038;7.012;2023-06-10T03:24:13;105741.75;;;17.32;100.00
19845;BME280;10083;51.038;7.012;2023-06-10T03:26:54;105804.84;;;17.26;100.00
19845;BME280;10083;51.038;7.012;2023-06-10T03:29:22;105827.47;;;17.27;100.00
19845;BME280;10083;51.038;7.012;2023-06-10T03:31:53;105910.69;;;17.31;100.00
19845;BME280;10083;51.038;7.012;2023-06-10T03:34:21;105981.19;;;17.32;100.00
19845;BME280;10083;51.038;7.012;2023-06-10T03:36:50;105979.41;;;17.31;100.00
19845;BME280;10083;51.038;7.012;2023-06-10T03:39:17;106020.59;;;17.21;100.00
19845;BME280;10083;51.038;7.012;2023-06-10T03:41:45;106143.66;;;17.26;100.00
19845;BME280;10083;51.038;7.012;2023-06-10T03:44:12;106263.44;;;17.16;100.00
19845;BME280;10083;51.038;7.012;2023-06-10T03:46:39;106456.66;;;17.13;100.00
19845;BME280;10083;51.038;7.012;2023-06-10T03:49:08;106709.19;;;17.24;100.00
19845;BME280;10083;51.038;7.012;2023-06-10T03:51:35;106948.06;;;17.30;100.00
19845;BME280;10083;51.038;7.012;2023-06-10T03:54:03;107170.91;;;17.23;100.00
19845;BME280;10083;51.038;7.012;2023-06-10T03:56:31;107287.41;;;17.22;100.00
19845;BME280;10083;51.038;7.012;2023-06-10T03:58:58;107427.03;;;17.30;100.00
19845;BME280;10083;51.038;7.012;2023-06-10T04:01:47;107492.53;;;17.37;100.00
19845;BME280;10083;51.038;7.012;2023-06-10T04:04:15;107494.78;;;17.44;100.00
19845;BME280;10083;51.038;7.012;2023-06-10T04:06:44;107429.84;;;17.63;100.00
19845;BME280;10083;51.038;7.012;2023-06-10T04:09:12;107300.44;;;17.79;100.00
19845;BME280;10083;51.038;7.012;2023-06-10T04:11:39;107126.91;;;17.82;100.00
19845;BME280;10083;51.038;7.012;2023-06-10T04:14:06;107040.44;;;17.70;100.00
19845;BME280;10083;51.038;7.012;2023-06-10T04:16:49;107025.97;;;17.71;100.00
19845;BME280;10083;51.038;7.012;2023-06-10T04:19:18;106979.34;;;17.80;100.00
19845;BME280;10083;51.038;7.012;2023-06-10T04:21:50;106970.25;;;17.78;100.00
19845;BME280;10083;51.038;7.012;2023-06-10T04:24:19;107009.38;;;17.83;100.00
19845;BME280;10083;51.038;7.012;2023-06-10T04:26:56;107025.50;;;17.99;100.00
19845;BME280;10083;51.038;7.012;2023-06-10T04:29:23;106941.50;;;18.02;100.00
19845;BME280;10083;51.038;7.012;2023-06-10T04:32:00;106801.53;;;18.08;100.00
19845;BME280;10083;51.038;7.012;2023-06-10T04:34:29;106647.66;;;18.30;100.00
19845;BME280;10083;51.038;7.012;2023-06-10T04:36:56;106422.19;;;18.27;100.00
19845;BME280;10083;51.038;7.012;2023-06-10T04:39:23;106249.34;;;18.27;100.00
19845;BME280;10083;51.038;7.012;2023-06-10T04:41:55;106175.34;;;18.34;100.00
19845;BME280;10083;51.038;7.012;2023-06-10T04:44:24;106057.81;;;18.38;100.00
19845;BME280;10083;51.038;7.012;2023-06-10T04:46:53;105966.47;;;18.42;100.00
19845;BME280;10083;51.038;7.012;2023-06-10T04:49:22;105968.31;;;18.43;100.00
19845;BME280;10083;51.038;7.012;2023-06-10T04:52:18;105918.06;;;18.57;100.00
19845;BME280;10083;51.038;7.012;2023-06-10T04:54:46;105764.34;;;18.67;100.00
19845;BME280;10083;51.038;7.012;2023-06-10T04:57:14;105627.78;;;18.74;100.00
19845;BME280;10083;51.038;7.012;2023-06-10T04:59:42;105487.78;;;18.92;100.00
19845;BME280;10083;51.038;7.012;2023-06-10T05:02:09;105309.66;;;19.14;100.00
19845;BME280;10083;51.038;7.012;2023-06-10T05:04:37;105111.25;;;19.19;100.00
19845;BME280;10083;51.038;7.012;2023-06-10T05:07:04;104935.41;;;19.06;100.00
19845;BME280;10083;51.038;7.012;2023-06-10T05:09:40;104845.78;;;19.19;100.00
19845;BME280;10083;51.038;7.012;2023-06-10T05:12:08;104747.97;;;19.28;100.00
19845;BME280;10083;51.038;7.012;2023-06-10T05:14:36;104666.34;;;19.10;100.00
19845;BME280;10083;51.038;7.012;2023-06-10T05:17:04;104648.31;;;19.33;100.00
19845;BME280;10083;51.038;7.012;2023-06-10T05:19:42;104521.50;;;19.51;100.00
19845;BME280;10083;51.038;7.012;2023-06-10T05:33:29;103957.94;;;20.16;100.00
19845;BME280;10083;51.038;7.012;2023-06-10T05:35:56;103894.22;;;20.34;100.00
19845;BME280;10083;51.038;7.012;2023-06-10T05:38:38;103824.25;;;20.40;100.00
19845;BME280;10083;51.038;7.012;2023-06-10T05:41:05;103777.00;;;20.43;100.00
19845;BME280;10083;51.038;7.012;2023-06-10T05:43:52;103720.78;;;20.40;100.00
19845;BME280;10083;51.038;7.012;2023-06-10T05:46:19;103724.88;;;20.65;100.00
19845;BME280;10083;51.038;7.012;2023-06-10T05:52:11;103691.97;;;20.77;100.00
19845;BME280;10083;51.038;7.012;2023-06-10T05:57:59;103688.66;;;21.06;100.00
19845;BME280;10083;51.038;7.012;2023-06-10T06:01:02;103646.84;;;21.07;100.00
19845;BME280;10083;51.038;7.012;2023-06-10T06:03:30;103658.38;;;21.23;100.00
19845;BME280;10083;51.038;7.012;2023-06-10T06:06:02;103695.47;;;21.30;100.00
19845;BME280;10083;51.038;7.012;2023-06-10T06:08:30;103733.47;;;21.38;100.00
19845;BME280;10083;51.038;7.012;2023-06-10T06:11:00;103778.66;;;21.51;100.00
19845;BME280;10083;51.038;7.012;2023-06-10T06:13:27;103829.25;;;21.67;100.00
19845;BME280;10083;51.038;7.012;2023-06-10T06:16:06;103879.91;;;21.80;100.00
19845;BME280;10083;51.038;7.012;2023-06-10T06:18:33;103922.63;;;21.83;100.00
19845;BME280;10083;51.038;7.012;2023-06-10T06:21:02;103971.47;;;21.99;100.00
19845;BME280;10083;51.038;7.012;2023-06-10T06:23:30;104014.81;;;22.16;100.00
19845;BME280;10083;51.038;7.012;2023-06-10T06:25:59;104038.06;;;22.37;100.00
19845;BME280;10083;51.038;7.012;2023-06-10T06:28:27;104072.63;;;22.38;100.00
19845;BME280;10083;51.038;7.012;2023-06-10T06:31:31;104077.00;;;22.48;100.00
19845;BME280;10083;51.038;7.012;2023-06-10T06:33:58;104093.13;;;22.62;100.00
19845;BME280;10083;51.038;7.012;2023-06-10T06:36:30;104090.16;;;22.74;100.00
19845;BME280;10083;51.038;7.012;2023-06-10T06:38:58;104082.66;;;22.83;100.00
19845;BME280;10083;51.038;7.012;2023-06-10T06:41:27;104084.41;;;22.87;100.00
19845;BME280;10083;51.038;7.012;2023-06-10T06:43:56;104082.31;;;23.00;100.00
19845;BME280;10083;51.038;7.012;2023-06-10T06:46:37;104079.31;;;23.11;100.00
19845;BME280;10083;51.038;7.012;2023-06-10T06:49:07;104089.00;;;23.25;100.00
19845;BME280;10083;51.038;7.012;2023-06-10T06:51:37;104065.28;;;23.26;100.00
19845;BME280;10083;51.038;7.012;2023-06-10T06:54:20;104052.81;;;23.53;100.00
19845;BME280;10083;51.038;7.012;2023-06-10T06:56:47;104063.69;;;23.54;100.00
19845;BME280;10083;51.038;7.012;2023-06-10T06:59:24;104049.00;;;23.58;100.00
19845;BME280;10083;51.038;7.012;2023-06-10T07:01:51;104032.59;;;23.58;100.00
19845;BME280;10083;51.038;7.012;2023-06-10T07:04:22;104017.94;;;23.61;100.00
19845;BME280;10083;51.038;7.012;2023-06-10T07:06:49;103981.06;;;23.75;100.00
19845;BME280;10083;51.038;7.012;2023-06-10T07:09:16;104006.50;;;23.79;100.00
19845;BME280;10083;51.038;7.012;2023-06-10T07:11:45;103992.50;;;23.89;100.00
19845;BME280;10083;51.038;7.012;2023-06-10T07:17:28;103979.06;;;24.14;100.00
19845;BME280;10083;51.038;7.012;2023-06-10T07:19:57;103957.44;;;24.36;100.00
19845;BME280;10083;51.038;7.012;2023-06-10T07:22:25;103881.38;;;24.44;100.00
19845;BME280;10083;51.038;7.012;2023-06-10T07:24:52;103845.59;;;24.49;100.00
19845;BME280;10083;51.038;7.012;2023-06-10T07:27:32;103792.78;;;24.70;100.00
19845;BME280;10083;51.038;7.012;2023-06-10T07:30:06;103743.16;;;24.77;100.00
19845;BME280;10083;51.038;7.012;2023-06-10T07:32:34;103669.25;;;24.74;100.00
19845;BME280;10083;51.038;7.012;2023-06-10T07:35:02;103712.81;;;25.08;100.00
19845;BME280;10083;51.038;7.012;2023-06-10T07:37:29;103614.06;;;25.08;100.00
19845;BME280;10083;51.038;7.012;2023-06-10T07:39:57;103618.94;;;25.23;100.00
19845;BME280;10083;51.038;7.012;2023-06-10T07:42:24;103527.97;;;25.34;100.00
19845;BME280;10083;51.038;7.012;2023-06-10T07:44:52;103565.41;;;25.13;100.00
19845;BME280;10083;51.038;7.012;2023-06-10T07:51:00;103517.72;;;25.61;100.00
19845;BME280;10083;51.038;7.012;2023-06-10T07:53:45;103441.47;;;25.46;100.00
19845;BME280;10083;51.038;7.012;2023-06-10T07:56:13;103458.78;;;25.70;100.00
19845;BME280;10083;51.038;7.012;2023-06-10T07:58:46;103437.97;;;26.04;100.00
19845;BME280;10083;51.038;7.012;2023-06-10T08:01:14;103375.06;;;25.98;100.00
19845;BME280;10083;51.038;7.012;2023-06-10T08:03:50;103561.88;;;26.40;100.00
19845;BME280;10083;51.038;7.012;2023-06-10T08:06:17;103420.09;;;26.35;100.00
19845;BME280;10083;51.038;7.012;2023-06-10T08:09:22;103304.22;;;26.44;100.00
19845;BME280;10083;51.038;7.012;2023-06-10T08:11:49;103279.28;;;26.66;100.00
19845;BME280;10083;51.038;7.012;2023-06-10T08:17:44;103221.91;;;26.94;100.00
19845;BME280;10083;51.038;7.012;2023-06-10T08:20:11;103151.97;;;26.98;100.00
19845;BME280;10083;51.038;7.012;2023-06-10T08:23:06;103144.53;;;27.00;100.00
19845;BME280;10083;51.038;7.012;2023-06-10T08:25:34;103027.06;;;27.18;100.00
19845;BME280;10083;51.038;7.012;2023-06-10T08:28:07;103030.25;;;27.41;100.00
19845;BME280;10083;51.038;7.012;2023-06-10T08:30:34;102929.50;;;27.23;100.00
19845;BME280;10083;51.038;7.012;2023-06-10T08:33:02;102940.31;;;27.58;100.00
19845;BME280;10083;51.038;7.012;2023-06-10T08:35:31;102861.09;;;27.77;100.00
19845;BME280;10083;51.038;7.012;2023-06-10T08:37:58;102780.75;;;27.40;100.00
19845;BME280;10083;51.038;7.012;2023-06-10T08:40:25;102826.78;;;27.82;100.00
19845;BME280;10083;51.038;7.012;2023-06-10T08:42:59;102774.03;;;27.74;100.00
19845;BME280;10083;51.038;7.012;2023-06-10T08:45:29;102795.97;;;27.62;100.00
19845;BME280;10083;51.038;7.012;2023-06-10T08:47:59;102731.44;;;27.66;100.00
19845;BME280;10083;51.038;7.012;2023-06-10T08:50:28;102669.84;;;27.81;100.00
19845;BME280;10083;51.038;7.012;2023-06-10T08:52:58;102780.84;;;27.97;100.00
19845;BME280;10083;51.038;7.012;2023-06-10T08:55:29;102727.59;;;28.11;100.00
19845;BME280;10083;51.038;7.012;2023-06-10T08:58:17;102737.75;;;28.51;100.00
19845;BME280;10083;51.038;7.012;2023-06-10T09:00:44;102617.16;;;28.41;100.00
19845;BME280;10083;51.038;7.012;2023-06-10T09:03:15;102584.00;;;28.67;100.00
19845;BME280;10083;51.038;7.012;2023-06-10T09:05:45;102573.25;;;29.02;100.00
19845;BME280;10083;51.038;7.012;2023-06-10T09:08:26;102574.47;;;29.11;100.00
19845;BME280;10083;51.038;7.012;2023-06-10T09:10:54;102543.44;;;29.07;100.00
19845;BME280;10083;51.038;7.012;2023-06-10T09:13:21;102504.13;;;29.16;100.00
19845;BME280;10083;51.038;7.012;2023-06-10T09:15:48;102437.97;;;29.40;100.00
19845;BME280;10083;51.038;7.012;2023-06-10T09:18:17;102462.13;;;29.24;100.00
19845;BME280;10083;51.038;7.012;2023-06-10T09:20:46;102451.81;;;29.51;100.00
19845;BME280;10083;51.038;7.012;2023-06-10T09:23:17;102376.22;;;29.29;100.00
19845;BME280;10083;51.038;7.012;2023-06-10T09:25:44;102410.53;;;29.50;100.00
19845;BME280;10083;51.038;7.012;2023-06-10T09:28:15;102352.38;;;29.75;100.00
19845;BME280;10083;51.038;7.012;2023-06-10T09:30:44;102371.59;;;30.34;100.00
19845;BME280;10083;51.038;7.012;2023-06-10T09:33:12;102333.03;;;29.86;100.00
19845;BME280;10083;51.038;7.012;2023-06-10T09:35:47;102356.00;;;30.22;100.00
19845;BME280;10083;51.038;7.012;2023-06-10T09:38:22;102227.31;;;30.51;100.00
19845;BME280;10083;51.038;7.012;2023-06-10T09:40:50;102288.00;;;30.41;100.00
19845;BME280;10083;51.038;7.012;2023-06-10T09:43:18;102293.66;;;30.73;100.00
19845;BME280;10083;51.038;7.012;2023-06-10T09:45:48;102233.78;;;30.72;100.00
19845;BME280;10083;51.038;7.012;2023-06-10T09:48:22;102112.81;;;30.63;100.00
19845;BME280;10083;51.038;7.012;2023-06-10T09:50:51;102096.09;;;31.17;100.00
19845;BME280;10083;51.038;7.012;2023-06-10T09:53:20;102135.03;;;31.25;100.00
19845;BME280;10083;51.038;7.012;2023-06-10T09:55:48;102168.94;;;32.10;100.00
19845;BME280;10083;51.038;7.012;2023-06-10T09:58:16;102080.59;;;32.06;100.00
19845;BME280;10083;51.038;7.012;2023-06-10T10:00:43;102043.72;;;32.82;100.00
19845;BME280;10083;51.038;7.012;2023-06-10T10:03:22;101913.47;;;33.53;100.00
19845;BME280;10083;51.038;7.012;2023-06-10T10:05:58;101777.72;;;32.31;100.00
19845;BME280;10083;51.038;7.012;2023-06-10T10:08:26;101732.56;;;32.02;100.00
19845;BME280;10083;51.038;7.012;2023-06-10T10:10:57;101740.06;;;32.28;100.00
19845;BME280;10083;51.038;7.012;2023-06-10T10:13:25;101781.00;;;31.98;100.00
19845;BME280;10083;51.038;7.012;2023-06-10T10:15:55;101844.22;;;32.50;100.00
19845;BME280;10083;51.038;7.012;2023-06-10T10:18:24;101761.94;;;33.13;100.00
19845;BME280;10083;51.038;7.012;2023-06-10T10:20:57;101728.66;;;33.31;100.00
19845;BME280;10083;51.038;7.012;2023-06-10T10:23:35;101799.44;;;33.27;100.00
19845;BME280;10083;51.038;7.012;2023-06-10T10:26:10;101827.84;;;32.66;100.00
19845;BME280;10083;51.038;7.012;2023-06-10T10:28:41;101918.00;;;31.85;100.00
19845;BME280;10083;51.038;7.012;2023-06-10T10:31:12;101793.41;;;31.26;100.00
19845;BME280;10083;51.038;7.012;2023-06-10T10:33:51;101674.69;;;31.89;100.00
19845;BME280;10083;51.038;7.012;2023-06-10T10:36:20;101732.56;;;30.86;100.00
19845;BME280;10083;51.038;7.012;2023-06-10T10:39:09;101762.78;;;30.49;100.00
19845;BME280;10083;51.038;7.012;2023-06-10T10:41:36;101747.53;;;30.74;100.00
19845;BME280;10083;51.038;7.012;2023-06-10T10:44:09;101743.84;;;30.45;100.00
19845;BME280;10083;51.038;7.012;2023-06-10T10:46:43;101766.47;;;31.28;100.00
19845;BME280;10083;51.038;7.012;2023-06-10T10:49:31;101775.91;;;33.04;100.00
19845;BME280;10083;51.038;7.012;2023-06-10T10:52:01;101552.28;;;32.74;100.00
19845;BME280;10083;51.038;7.012;2023-06-10T10:54:31;101579.59;;;34.16;100.00
19845;BME280;10083;51.038;7.012;2023-06-10T10:57:12;101405.91;;;34.91;100.00
19845;BME280;10083;51.038;7.012;2023-06-10T10:59:56;101396.38;;;34.21;100.00
19845;BME280;10083;51.038;7.012;2023-06-10T11:02:43;101578.19;;;32.47;100.00
19845;BME280;10083;51.038;7.012;2023-06-10T11:05:15;101682.59;;;31.65;100.00
19845;BME280;10083;51.038;7.012;2023-06-10T11:07:54;101603.50;;;32.97;100.00
19845;BME280;10083;51.038;7.012;2023-06-10T11:10:29;101513.66;;;34.74;100.00
19845;BME280;10083;51.038;7.012;2023-06-10T11:12:59;101508.25;;;34.97;100.00
19845;BME280;10083;51.038;7.012;2023-06-10T11:15:38;101430.28;;;34.57;100.00
19845;BME280;10083;51.038;7.012;2023-06-10T11:18:10;101487.22;;;33.46;100.00
19845;BME280;10083;51.038;7.012;2023-06-10T11:21:07;101661.91;;;32.60;100.00
19845;BME280;10083;51.038;7.012;2023-06-10T11:23:40;101669.63;;;32.39;100.00
19845;BME280;10083;51.038;7.012;2023-06-10T11:26:19;101806.38;;;31.07;100.00
19845;BME280;10083;51.038;7.012;2023-06-10T11:32:09;101848.50;;;30.08;100.00
19845;BME280;10083;51.038;7.012;2023-06-10T11:35:08;101945.75;;;29.70;100.00
19845;BME280;10083;51.038;7.012;2023-06-10T11:37:36;101933.53;;;29.30;100.00
19845;BME280;10083;51.038;7.012;2023-06-10T11:40:11;101936.13;;;29.85;100.00
19845;BME280;10083;51.038;7.012;2023-06-10T11:42:40;102034.16;;;29.48;100.00
19845;BME280;10083;51.038;7.012;2023-06-10T11:45:10;102100.31;;;29.72;100.00
19845;BME280;10083;51.038;7.012;2023-06-10T11:47:55;102109.59;;;29.82;100.00
19845;BME280;10083;51.038;7.012;2023-06-10T11:50:28;102061.63;;;29.94;100.00
19845;BME280;10083;51.038;7.012;2023-06-10T11:53:04;102094.91;;;29.70;100.00
19845;BME280;10083;51.038;7.012;2023-06-10T11:55:44;102069.53;;;29.76;100.00
19845;BME280;10083;51.038;7.012;2023-06-10T11:58:13;102103.84;;;29.62;100.00
19845;BME280;10083;51.038;7.012;2023-06-10T12:00:53;102064.03;;;29.87;100.00
19845;BME280;10083;51.038;7.012;2023-06-10T12:03:21;102107.06;;;30.23;100.00
19845;BME280;10083;51.038;7.012;2023-06-10T12:05:56;101768.16;;;33.60;100.00
19845;BME280;10083;51.038;7.012;2023-06-10T12:08:24;101764.28;;;36.68;100.00
19845;BME280;10083;51.038;7.012;2023-06-10T12:10:54;101424.16;;;36.41;100.00
19845;BME280;10083;51.038;7.012;2023-06-10T12:13:22;101442.63;;;37.32;100.00
19845;BME280;10083;51.038;7.012;2023-06-10T12:16:06;101244.06;;;37.46;100.00
19845;BME280;10083;51.038;7.012;2023-06-10T12:18:34;101391.44;;;38.67;100.00
19845;BME280;10083;51.038;7.012;2023-06-10T12:21:15;101188.47;;;37.79;100.00
19845;BME280;10083;51.038;7.012;2023-06-10T12:24:02;101205.88;;;36.82;100.00
19845;BME280;10083;51.038;7.012;2023-06-10T12:26:38;101125.72;;;38.29;100.00
19845;BME280;10083;51.038;7.012;2023-06-10T12:29:19;101234.22;;;37.93;100.00
19845;BME280;10083;51.038;7.012;2023-06-10T12:31:57;101232.34;;;38.28;100.00
19845;BME280;10083;51.038;7.012;2023-06-10T12:34:35;101307.69;;;36.79;100.00
19845;BME280;10083;51.038;7.012;2023-06-10T12:37:04;101484.41;;;38.34;100.00
19845;BME280;10083;51.038;7.012;2023-06-10T12:39:33;101374.06;;;36.40;100.00
19845;BME280;10083;51.038;7.012;2023-06-10T12:42:08;101264.56;;;38.17;100.00
19845;BME280;10083;51.038;7.012;2023-06-10T12:44:39;101447.19;;;35.81;100.00
19845;BME280;10083;51.038;7.012;2023-06-10T12:47:09;101362.19;;;37.63;100.00
19845;BME280;10083;51.038;7.012;2023-06-10T12:49:38;101381.47;;;35.17;100.00
19845;BME280;10083;51.038;7.012;2023-06-10T12:52:11;101538.44;;;33.17;100.00
19845;BME280;10083;51.038;7.012;2023-06-10T12:54:38;101670.59;;;31.83;100.00
19845;BME280;10083;51.038;7.012;2023-06-10T12:57:06;101815.16;;;31.69;100.00
19845;BME280;10083;51.038;7.012;2023-06-10T12:59:36;101791.38;;;31.19;100.00
19845;BME280;10083;51.038;7.012;2023-06-10T13:02:09;101846.34;;;30.93;100.00
19845;BME280;10083;51.038;7.012;2023-06-10T13:04:38;101753.91;;;31.05;100.00
19845;BME280;10083;51.038;7.012;2023-06-10T13:07:06;101866.34;;;30.66;100.00
19845;BME280;10083;51.038;7.012;2023-06-10T13:09:33;101811.78;;;30.78;100.00
19845;BME280;10083;51.038;7.012;2023-06-10T13:12:00;101822.56;;;32.17;100.00
19845;BME280;10083;51.038;7.012;2023-06-10T13:14:30;101820.75;;;32.82;100.00
19845;BME280;10083;51.038;7.012;2023-06-10T13:16:57;101594.59;;;33.81;100.00
19845;BME280;10083;51.038;7.012;2023-06-10T13:19:25;101676.44;;;34.12;100.00
19845;BME280;10083;51.038;7.012;2023-06-10T13:21:52;101459.88;;;35.92;100.00
19845;BME280;10083;51.038;7.012;2023-06-10T13:24:19;101308.94;;;36.91;100.00
19845;BME280;10083;51.038;7.012;2023-06-10T13:26:47;101316.00;;;37.95;100.00
19845;BME280;10083;51.038;7.012;2023-06-10T13:29:30;101221.66;;;38.79;100.00
19845;BME280;10083;51.038;7.012;2023-06-10T13:31:59;101250.81;;;37.16;100.00
19845;BME280;10083;51.038;7.012;2023-06-10T13:34:32;101322.22;;;35.85;100.00
19845;BME280;10083;51.038;7.012;2023-06-10T13:37:00;101321.75;;;35.73;100.00
19845;BME280;10083;51.038;7.012;2023-06-10T13:39:27;101374.28;;;35.31;100.00
19845;BME280;10083;51.038;7.012;2023-06-10T13:41:54;101303.28;;;35.19;100.00
19845;BME280;10083;51.038;7.012;2023-06-10T13:44:24;101455.63;;;33.97;100.00
19845;BME280;10083;51.038;7.012;2023-06-10T13:46:54;101588.16;;;32.67;100.00
19845;BME280;10083;51.038;7.012;2023-06-10T13:49:28;101633.91;;;32.09;100.00
19845;BME280;10083;51.038;7.012;2023-06-10T13:51:56;101629.06;;;32.38;100.00
19845;BME280;10083;51.038;7.012;2023-06-10T13:54:24;101655.94;;;32.10;100.00
19845;BME280;10083;51.038;7.012;2023-06-10T13:56:52;101686.75;;;31.98;100.00
19845;BME280;10083;51.038;7.012;2023-06-10T13:59:33;101465.75;;;35.11;100.00
19845;BME280;10083;51.038;7.012;2023-06-10T14:02:03;101285.28;;;34.27;100.00
19845;BME280;10083;51.038;7.012;2023-06-10T14:04:34;101272.97;;;35.47;100.00
19845;BME280;10083;51.038;7.012;2023-06-10T14:07:01;101275.50;;;37.12;100.00